sensor_id;sensor_type;location;lat;lon;timestamp;temperature;humidity
1413;DHT22;701;52.526;13.408;2023-07-08T00:01:17;20.30;1.10
1413;DHT22;701;52.526;13.408;2023-07-08T00:03:43;20.20;1.40
1413;DHT22;701;52.526;13.408;2023-07-08T00:06:17;20.20;1.60
1413;DHT22;701;52.526;13.408;2023-07-08T00:08:43;20.10;1.80
1413;DHT22;701;52.526;13.408;2023-07-08T00:11:11;20.10;1.80
1413;DHT22;701;52.526;13.408;2023-07-08T00:13:37;20.00;2.00
1413;DHT22;701;52.526;13.408;2023-07-08T00:16:03;20.10;2.20
1413;DHT22;701;52.526;13.408;2023-07-08T00:18:28;20.10;2.20
1413;DHT22;701;52.526;13.408;2023-07-08T00:20:54;20.10;2.20
1413;DHT22;701;52.526;13.408;2023-07-08T00:23:20;20.10;2.30
1413;DHT22;701;52.526;13.408;2023-07-08T00:25:49;20.10;2.30
1413;DHT22;701;52.526;13.408;2023-07-08T00:28:19;20.10;2.30
1413;DHT22;701;52.526;13.408;2023-07-08T00:30:47;20.00;2.50
1413;DHT22;701;52.526;13.408;2023-07-08T00:33:15;20.00;2.50
1413;DHT22;701;52.526;13.408;2023-07-08T00:35:43;20.00;2.30
1413;DHT22;701;52.526;13.408;2023-07-08T00:38:15;20.00;2.30
1413;DHT22;701;52.526;13.408;2023-07-08T00:40:51;19.90;2.20
1413;DHT22;701;52.526;13.408;2023-07-08T00:43:21;19.90;2.30
1413;DHT22;701;52.526;13.408;2023-07-08T00:45:50;19.90;2.40
1413;DHT22;701;52.526;13.408;2023-07-08T00:48:24;19.90;2.40
1413;DHT22;701;52.526;13.408;2023-07-08T00:50:51;19.90;2.40
1413;DHT22;701;52.526;13.408;2023-07-08T00:53:35;19.90;2.20
1413;DHT22;701;52.526;13.408;2023-07-08T00:56:10;19.90;2.20
1413;DHT22;701;52.526;13.408;2023-07-08T00:58:45;19.90;2.10
1413;DHT22;701;52.526;13.408;2023-07-08T01:01:11;20.00;2.10
1413;DHT22;701;52.526;13.408;2023-07-08T01:03:49;19.90;2.00
1413;DHT22;701;52.526;13.408;2023-07-08T01:06:18;19.90;2.00
1413;DHT22;701;52.526;13.408;2023-07-08T01:08:46;19.90;2.00
1413;DHT22;701;52.526;13.408;2023-07-08T01:11:12;19.90;1.90
1413;DHT22;701;52.526;13.408;2023-07-08T01:13:42;19.90;2.10
1413;DHT22;701;52.526;13.408;2023-07-08T01:16:09;19.90;2.10
1413;DHT22;701;52.526;13.408;2023-07-08T01:18:36;19.90;2.20
1413;DHT22;701;52.526;13.408;2023-07-08T01:21:27;19.90;2.30
1413;DHT22;701;52.526;13.408;2023-07-08T01:23:54;19.90;2.50
1413;DHT22;701;52.526;13.408;2023-07-08T01:26:22;19.80;2.40
1413;DHT22;701;52.526;13.408;2023-07-08T01:28:49;19.80;2.60
1413;DHT22;701;52.526;13.408;2023-07-08T01:31:15;19.80;2.80
1413;DHT22;701;52.526;13.408;2023-07-08T01:33:41;19.70;3.00
1413;DHT22;701;52.526;13.408;2023-07-08T01:36:10;19.70;3.20
1413;DHT22;701;52.526;13.408;2023-07-08T01:38:36;19.70;3.40
1413;DHT22;701;52.526;13.408;2023-07-08T01:41:04;19.60;3.30
1413;DHT22;701;52.526;13.408;2023-07-08T01:43:30;19.60;3.50
1413;DHT22;701;52.526;13.408;2023-07-08T01:45:59;19.60;3.50
1413;DHT22;701;52.526;13.408;2023-07-08T01:48:33;19.50;3.70
1413;DHT22;701;52.526;13.408;2023-07-08T01:51:03;19.50;3.90
1413;DHT22;701;52.526;13.408;2023-07-08T01:53:39;19.50;4.60
1413;DHT22;701;52.526;13.408;2023-07-08T01:56:06;19.50;4.20
1413;DHT22;701;52.526;13.408;2023-07-08T01:58:33;19.40;4.20
1413;DHT22;701;52.526;13.408;2023-07-08T02:00:59;19.40;4.20
1413;DHT22;701;52.526;13.408;2023-07-08T02:03:26;19.40;4.20
1413;DHT22;701;52.526;13.408;2023-07-08T02:05:54;19.30;4.10
1413;DHT22;701;52.526;13.408;2023-07-08T02:08:21;19.30;4.10
1413;DHT22;701;52.526;13.408;2023-07-08T02:10:58;19.30;4.10
1413;DHT22;701;52.526;13.408;2023-07-08T02:13:24;19.20;4.00
1413;DHT22;701;52.526;13.408;2023-07-08T02:15:50;19.20;4.00
1413;DHT22;701;52.526;13.408;2023-07-08T02:18:17;19.10;4.00
1413;DHT22;701;52.526;13.408;2023-07-08T02:20:45;19.10;4.00
1413;DHT22;701;52.526;13.408;2023-07-08T02:23:11;19.00;4.30
1413;DHT22;701;52.526;13.408;2023-07-08T02:25:36;19.00;4.40
1413;DHT22;701;52.526;13.408;2023-07-08T02:28:03;19.00;4.80
1413;DHT22;701;52.526;13.408;2023-07-08T02:30:28;18.90;5.10
1413;DHT22;701;52.526;13.408;2023-07-08T02:32:54;18.90;5.10
1413;DHT22;701;52.526;13.408;2023-07-08T02:35:25;18.80;5.20
1413;DHT22;701;52.526;13.408;2023-07-08T02:37:52;18.80;5.30
1413;DHT22;701;52.526;13.408;2023-07-08T02:40:18;18.80;5.40
1413;DHT22;701;52.526;13.408;2023-07-08T02:42:44;18.70;5.30
1413;DHT22;701;52.526;13.408;2023-07-08T02:45:11;18.70;5.50
1413;DHT22;701;52.526;13.408;2023-07-08T02:47:37;18.70;5.70
1413;DHT22;701;52.526;13.408;2023-07-08T02:50:04;18.70;5.50
1413;DHT22;701;52.526;13.408;2023-07-08T02:52:30;18.60;5.70
1413;DHT22;701;52.526;13.408;2023-07-08T02:54:56;18.60;5.70
1413;DHT22;701;52.526;13.408;2023-07-08T02:57:22;18.60;5.70
1413;DHT22;701;52.526;13.408;2023-07-08T02:59:48;18.60;5.50
1413;DHT22;701;52.526;13.408;2023-07-08T03:02:13;18.60;5.40
1413;DHT22;701;52.526;13.408;2023-07-08T03:04:39;18.60;5.10
1413;DHT22;701;52.526;13.408;2023-07-08T03:07:09;18.60;5.20
1413;DHT22;701;52.526;13.408;2023-07-08T03:09:40;18.60;5.20
1413;DHT22;701;52.526;13.408;2023-07-08T03:12:09;18.70;5.20
1413;DHT22;701;52.526;13.408;2023-07-08T03:14:35;18.70;5.10
1413;DHT22;701;52.526;13.408;2023-07-08T03:17:02;18.80;5.10
1413;DHT22;701;52.526;13.408;2023-07-08T03:19:28;18.80;5.10
1413;DHT22;701;52.526;13.408;2023-07-08T03:21:54;18.80;5.10
1413;DHT22;701;52.526;13.408;2023-07-08T03:24:20;18.90;5.00
1413;DHT22;701;52.526;13.408;2023-07-08T03:26:47;18.90;4.80
1413;DHT22;701;52.526;13.408;2023-07-08T03:29:16;19.00;4.80
1413;DHT22;701;52.526;13.408;2023-07-08T03:31:44;19.00;4.80
1413;DHT22;701;52.526;13.408;2023-07-08T03:34:11;19.00;4.60
1413;DHT22;701;52.526;13.408;2023-07-08T03:36:44;19.00;4.40
1413;DHT22;701;52.526;13.408;2023-07-08T03:39:22;19.10;4.50
1413;DHT22;701;52.526;13.408;2023-07-08T03:41:49;19.10;4.20
1413;DHT22;701;52.526;13.408;2023-07-08T03:44:15;19.10;4.20
1413;DHT22;701;52.526;13.408;2023-07-08T03:46:43;19.20;4.40
1413;DHT22;701;52.526;13.408;2023-07-08T03:49:10;19.20;4.40
1413;DHT22;701;52.526;13.408;2023-07-08T03:51:38;19.20;4.50
1413;DHT22;701;52.526;13.408;2023-07-08T03:54:06;19.20;4.70
1413;DHT22;701;52.526;13.408;2023-07-08T03:56:34;19.20;4.80
1413;DHT22;701;52.526;13.408;2023-07-08T03:59:01;19.20;5.20
1413;DHT22;701;52.526;13.408;2023-07-08T04:01:30;19.20;5.40
1413;DHT22;701;52.526;13.408;2023-07-08T04:03:57;19.20;5.60
1413;DHT22;701;52.526;13.408;2023-07-08T04:06:24;19.10;5.80
1413;DHT22;701;52.526;13.408;2023-07-08T04:08:51;19.10;5.80
1413;DHT22;701;52.526;13.408;2023-07-08T04:11:22;19.10;6.10
1413;DHT22;701;52.526;13.408;2023-07-08T04:13:48;19.10;6.20
1413;DHT22;701;52.526;13.408;2023-07-08T04:16:27;19.10;6.00
1413;DHT22;701;52.526;13.408;2023-07-08T04:18:54;19.20;6.80
1413;DHT22;701;52.526;13.408;2023-07-08T04:21:22;19.20;6.10
1413;DHT22;701;52.526;13.408;2023-07-08T04:23:48;19.20;6.10
1413;DHT22;701;52.526;13.408;2023-07-08T04:26:14;19.20;6.20
1413;DHT22;701;52.526;13.408;2023-07-08T04:28:41;19.20;6.30
1413;DHT22;701;52.526;13.408;2023-07-08T04:31:07;19.30;6.40
1413;DHT22;701;52.526;13.408;2023-07-08T04:33:33;19.30;6.40
1413;DHT22;701;52.526;13.408;2023-07-08T04:35:59;19.30;6.30
1413;DHT22;701;52.526;13.408;2023-07-08T04:38:25;19.30;6.30
1413;DHT22;701;52.526;13.408;2023-07-08T04:40:53;19.40;6.30
1413;DHT22;701;52.526;13.408;2023-07-08T04:43:20;19.40;6.20
1413;DHT22;701;52.526;13.408;2023-07-08T04:45:51;19.40;6.20
1413;DHT22;701;52.526;13.408;2023-07-08T04:48:19;19.50;6.30
1413;DHT22;701;52.526;13.408;2023-07-08T04:50:49;19.50;6.20
1413;DHT22;701;52.526;13.408;2023-07-08T04:53:16;19.60;6.00
1413;DHT22;701;52.526;13.408;2023-07-08T04:55:45;19.60;6.00
1413;DHT22;701;52.526;13.408;2023-07-08T04:58:11;19.60;6.00
1413;DHT22;701;52.526;13.408;2023-07-08T05:00:37;19.70;5.90
1413;DHT22;701;52.526;13.408;2023-07-08T05:03:03;19.80;6.00
1413;DHT22;701;52.526;13.408;2023-07-08T05:05:29;19.80;5.90
1413;DHT22;701;52.526;13.408;2023-07-08T05:07:54;19.90;5.90
1413;DHT22;701;52.526;13.408;2023-07-08T05:10:21;19.90;5.80
1413;DHT22;701;52.526;13.408;2023-07-08T05:12:48;20.00;5.50
1413;DHT22;701;52.526;13.408;2023-07-08T05:15:14;20.10;5.50
1413;DHT22;701;52.526;13.408;2023-07-08T05:17:40;20.10;5.30
1413;DHT22;701;52.526;13.408;2023-07-08T05:20:08;20.20;5.30
1413;DHT22;701;52.526;13.408;2023-07-08T05:22:34;20.30;5.20
1413;DHT22;701;52.526;13.408;2023-07-08T05:25:01;20.30;4.90
1413;DHT22;701;52.526;13.408;2023-07-08T05:27:27;20.40;4.80
1413;DHT22;701;52.526;13.408;2023-07-08T05:29:53;20.50;4.90
1413;DHT22;701;52.526;13.408;2023-07-08T05:32:19;20.60;5.00
1413;DHT22;701;52.526;13.408;2023-07-08T05:34:45;20.60;5.00
1413;DHT22;701;52.526;13.408;2023-07-08T05:37:12;20.70;5.00
1413;DHT22;701;52.526;13.408;2023-07-08T05:39:38;20.80;5.10
1413;DHT22;701;52.526;13.408;2023-07-08T05:42:04;20.90;5.20
1413;DHT22;701;52.526;13.408;2023-07-08T05:44:30;20.90;4.90
1413;DHT22;701;52.526;13.408;2023-07-08T05:46:56;21.00;4.70
1413;DHT22;701;52.526;13.408;2023-07-08T05:49:22;21.00;4.50
1413;DHT22;701;52.526;13.408;2023-07-08T05:51:47;21.10;4.50
1413;DHT22;701;52.526;13.408;2023-07-08T05:54:14;21.20;4.40
1413;DHT22;701;52.526;13.408;2023-07-08T05:56:40;21.30;4.30
1413;DHT22;701;52.526;13.408;2023-07-08T05:59:06;21.30;4.10
1413;DHT22;701;52.526;13.408;2023-07-08T06:01:32;21.40;4.00
1413;DHT22;701;52.526;13.408;2023-07-08T06:03:58;21.50;3.80
1413;DHT22;701;52.526;13.408;2023-07-08T06:06:25;21.60;3.80
1413;DHT22;701;52.526;13.408;2023-07-08T06:08:52;21.70;3.60
1413;DHT22;701;52.526;13.408;2023-07-08T06:11:18;21.80;3.60
1413;DHT22;701;52.526;13.408;2023-07-08T06:13:43;21.80;3.30
1413;DHT22;701;52.526;13.408;2023-07-08T06:16:09;21.90;3.10
1413;DHT22;701;52.526;13.408;2023-07-08T06:18:35;22.00;3.00
1413;DHT22;701;52.526;13.408;2023-07-08T06:21:01;22.10;2.70
1413;DHT22;701;52.526;13.408;2023-07-08T06:23:27;22.20;2.70
1413;DHT22;701;52.526;13.408;2023-07-08T06:25:53;22.30;2.60
1413;DHT22;701;52.526;13.408;2023-07-08T06:28:20;22.40;2.20
1413;DHT22;701;52.526;13.408;2023-07-08T06:30:46;22.50;2.80
1413;DHT22;701;52.526;13.408;2023-07-08T06:33:12;22.60;2.20
1413;DHT22;701;52.526;13.408;2023-07-08T06:35:39;22.70;1.90
1413;DHT22;701;52.526;13.408;2023-07-08T06:38:05;22.80;1.80
1413;DHT22;701;52.526;13.408;2023-07-08T06:40:32;23.00;1.00
1413;DHT22;701;52.526;13.408;2023-07-08T06:42:58;23.10;1.00
1413;DHT22;701;52.526;13.408;2023-07-08T06:45:35;24.20;1.00
1413;DHT22;701;52.526;13.408;2023-07-08T06:48:01;26.60;1.00
1413;DHT22;701;52.526;13.408;2023-07-08T06:50:27;29.10;1.00
1413;DHT22;701;52.526;13.408;2023-07-08T06:52:55;31.60;1.00
1413;DHT22;701;52.526;13.408;2023-07-08T06:55:21;34.00;1.00
1413;DHT22;701;52.526;13.408;2023-07-08T06:57:47;36.10;1.00
1413;DHT22;701;52.526;13.408;2023-07-08T07:00:13;37.90;1.00
1413;DHT22;701;52.526;13.408;2023-07-08T07:02:39;39.60;1.00
1413;DHT22;701;52.526;13.408;2023-07-08T07:05:05;40.90;1.00
1413;DHT22;701;52.526;13.408;2023-07-08T07:07:31;41.90;1.00
1413;DHT22;701;52.526;13.408;2023-07-08T07:09:57;42.90;1.00
1413;DHT22;701;52.526;13.408;2023-07-08T07:12:24;43.80;1.00
1413;DHT22;701;52.526;13.408;2023-07-08T07:14:50;44.50;1.00
1413;DHT22;701;52.526;13.408;2023-07-08T07:17:21;45.30;1.00
1413;DHT22;701;52.526;13.408;2023-07-08T07:19:47;46.20;1.00
1413;DHT22;701;52.526;13.408;2023-07-08T07:22:13;46.90;1.00
1413;DHT22;701;52.526;13.408;2023-07-08T07:24:39;47.40;1.00
1413;DHT22;701;52.526;13.408;2023-07-08T07:27:05;47.80;1.00
1413;DHT22;701;52.526;13.408;2023-07-08T07:29:42;48.30;1.00
1413;DHT22;701;52.526;13.408;2023-07-08T07:32:10;48.80;1.00
1413;DHT22;701;52.526;13.408;2023-07-08T07:34:36;49.20;1.00
1413;DHT22;701;52.526;13.408;2023-07-08T07:37:01;49.70;1.00
1413;DHT22;701;52.526;13.408;2023-07-08T07:39:27;50.20;1.00
1413;DHT22;701;52.526;13.408;2023-07-08T07:41:54;50.70;1.00
1413;DHT22;701;52.526;13.408;2023-07-08T07:44:20;51.20;1.00
1413;DHT22;701;52.526;13.408;2023-07-08T07:46:46;51.40;1.00
1413;DHT22;701;52.526;13.408;2023-07-08T07:49:13;51.40;1.00
1413;DHT22;701;52.526;13.408;2023-07-08T07:51:39;51.80;1.00
1413;DHT22;701;52.526;13.408;2023-07-08T07:54:04;52.20;1.00
1413;DHT22;701;52.526;13.408;2023-07-08T07:56:30;52.40;1.00
1413;DHT22;701;52.526;13.408;2023-07-08T07:58:56;52.70;1.00
1413;DHT22;701;52.526;13.408;2023-07-08T08:01:22;52.80;1.00
1413;DHT22;701;52.526;13.408;2023-07-08T08:03:48;53.10;1.00
1413;DHT22;701;52.526;13.408;2023-07-08T08:06:17;53.20;1.00
1413;DHT22;701;52.526;13.408;2023-07-08T08:08:44;53.10;1.00
1413;DHT22;701;52.526;13.408;2023-07-08T08:11:10;53.30;1.00
1413;DHT22;701;52.526;13.408;2023-07-08T08:13:36;53.30;1.00
1413;DHT22;701;52.526;13.408;2023-07-08T08:16:02;53.10;1.00
1413;DHT22;701;52.526;13.408;2023-07-08T08:18:30;53.40;1.00
1413;DHT22;701;52.526;13.408;2023-07-08T08:20:55;53.70;1.00
1413;DHT22;701;52.526;13.408;2023-07-08T08:23:21;53.70;1.00
1413;DHT22;701;52.526;13.408;2023-07-08T08:25:47;53.80;1.00
1413;DHT22;701;52.526;13.408;2023-07-08T08:28:13;53.80;1.00
1413;DHT22;701;52.526;13.408;2023-07-08T08:30:39;54.00;1.00
1413;DHT22;701;52.526;13.408;2023-07-08T08:33:05;54.40;1.00
1413;DHT22;701;52.526;13.408;2023-07-08T08:35:30;54.90;1.00
1413;DHT22;701;52.526;13.408;2023-07-08T08:37:56;55.20;1.00
1413;DHT22;701;52.526;13.408;2023-07-08T08:40:22;55.60;1.00
1413;DHT22;701;52.526;13.408;2023-07-08T08:45:20;56.20;1.00
1413;DHT22;701;52.526;13.408;2023-07-08T08:47:53;56.10;1.00
1413;DHT22;701;52.526;13.408;2023-07-08T08:50:33;55.50;1.00
1413;DHT22;701;52.526;13.408;2023-07-08T08:53:01;55.00;1.00
1413;DHT22;701;52.526;13.408;2023-07-08T08:55:28;54.50;1.00
1413;DHT22;701;52.526;13.408;2023-07-08T08:57:59;54.40;1.00
1413;DHT22;701;52.526;13.408;2023-07-08T09:00:56;54.30;1.00
1413;DHT22;701;52.526;13.408;2023-07-08T09:03:57;54.40;1.00
1413;DHT22;701;52.526;13.408;2023-07-08T09:06:29;54.50;1.00
1413;DHT22;701;52.526;13.408;2023-07-08T09:09:03;54.30;1.00
1413;DHT22;701;52.526;13.408;2023-07-08T09:19:37;53.40;1.00
1413;DHT22;701;52.526;13.408;2023-07-08T09:25:34;52.80;1.00
1413;DHT22;701;52.526;13.408;2023-07-08T09:28:01;52.80;1.00
1413;DHT22;701;52.526;13.408;2023-07-08T09:30:27;53.10;1.00
1413;DHT22;701;52.526;13.408;2023-07-08T09:32:56;53.40;1.00
1413;DHT22;701;52.526;13.408;2023-07-08T09:35:37;53.00;1.00
1413;DHT22;701;52.526;13.408;2023-07-08T09:38:15;52.40;1.00
1413;DHT22;701;52.526;13.408;2023-07-08T09:40:46;52.00;1.00
1413;DHT22;701;52.526;13.408;2023-07-08T09:43:48;51.00;1.00
1413;DHT22;701;52.526;13.408;2023-07-08T09:46:13;50.00;1.00
1413;DHT22;701;52.526;13.408;2023-07-08T09:48:40;49.60;1.00
1413;DHT22;701;52.526;13.408;2023-07-08T09:51:06;49.30;1.00
1413;DHT22;701;52.526;13.408;2023-07-08T09:53:34;48.80;1.00
1413;DHT22;701;52.526;13.408;2023-07-08T09:56:03;48.20;1.00
1413;DHT22;701;52.526;13.408;2023-07-08T09:58:35;47.60;1.00
1413;DHT22;701;52.526;13.408;2023-07-08T10:01:11;47.10;1.00
1413;DHT22;701;52.526;13.408;2023-07-08T10:03:38;46.70;1.00
1413;DHT22;701;52.526;13.408;2023-07-08T10:06:06;46.30;1.00
1413;DHT22;701;52.526;13.408;2023-07-08T10:08:42;46.10;1.00
1413;DHT22;701;52.526;13.408;2023-07-08T10:13:51;46.10;1.00
1413;DHT22;701;52.526;13.408;2023-07-08T10:16:33;46.10;1.00
1413;DHT22;701;52.526;13.408;2023-07-08T10:19:00;45.70;1.00
1413;DHT22;701;52.526;13.408;2023-07-08T10:24:44;45.10;1.00
1413;DHT22;701;52.526;13.408;2023-07-08T10:33:02;43.00;1.00
1413;DHT22;701;52.526;13.408;2023-07-08T10:35:36;42.20;1.00
1413;DHT22;701;52.526;13.408;2023-07-08T10:44:14;41.10;1.00
1413;DHT22;701;52.526;13.408;2023-07-08T10:49:28;40.30;1.00
1413;DHT22;701;52.526;13.408;2023-07-08T11:00:35;38.80;1.00
1413;DHT22;701;52.526;13.408;2023-07-08T11:06:17;38.60;1.00
1413;DHT22;701;52.526;13.408;2023-07-08T11:08:47;38.50;1.00
1413;DHT22;701;52.526;13.408;2023-07-08T11:11:27;38.50;1.00
1413;DHT22;701;52.526;13.408;2023-07-08T11:14:15;38.30;1.00
1413;DHT22;701;52.526;13.408;2023-07-08T11:19:32;37.40;1.00
1413;DHT22;701;52.526;13.408;2023-07-08T11:22:04;37.10;1.00
1413;DHT22;701;52.526;13.408;2023-07-08T11:24:37;36.70;1.00
1413;DHT22;701;52.526;13.408;2023-07-08T11:29:46;36.20;1.00
1413;DHT22;701;52.526;13.408;2023-07-08T11:32:16;35.90;1.00
1413;DHT22;701;52.526;13.408;2023-07-08T11:34:44;35.50;1.00
1413;DHT22;701;52.526;13.408;2023-07-08T11:37:12;35.00;1.00
1413;DHT22;701;52.526;13.408;2023-07-08T11:39:43;34.70;1.00
1413;DHT22;701;52.526;13.408;2023-07-08T11:42:22;34.50;1.00
1413;DHT22;701;52.526;13.408;2023-07-08T11:44:57;34.20;1.00
1413;DHT22;701;52.526;13.408;2023-07-08T11:47:39;33.90;1.00
1413;DHT22;701;52.526;13.408;2023-07-08T11:53:00;33.30;1.00
1413;DHT22;701;52.526;13.408;2023-07-08T11:58:01;32.80;1.00
1413;DHT22;701;52.526;13.408;2023-07-08T12:00:31;32.50;1.00
1413;DHT22;701;52.526;13.408;2023-07-08T12:03:20;32.30;1.00
1413;DHT22;701;52.526;13.408;2023-07-08T12:05:47;32.20;1.00
1413;DHT22;701;52.526;13.408;2023-07-08T12:08:18;32.10;1.00
1413;DHT22;701;52.526;13.408;2023-07-08T12:10:50;32.00;1.00
1413;DHT22;701;52.526;13.408;2023-07-08T12:13:19;31.90;1.00
1413;DHT22;701;52.526;13.408;2023-07-08T12:15:45;31.80;1.00
1413;DHT22;701;52.526;13.408;2023-07-08T12:18:15;31.70;1.00
1413;DHT22;701;52.526;13.408;2023-07-08T12:20:45;31.60;1.00
1413;DHT22;701;52.526;13.408;2023-07-08T12:23:12;31.60;1.00
1413;DHT22;701;52.526;13.408;2023-07-08T12:25:39;31.60;1.00
1413;DHT22;701;52.526;13.408;2023-07-08T12:28:05;31.60;1.00
1413;DHT22;701;52.526;13.408;2023-07-08T12:30:32;31.60;1.00
1413;DHT22;701;52.526;13.408;2023-07-08T12:32:59;31.50;1.00
1413;DHT22;701;52.526;13.408;2023-07-08T12:35:31;31.40;1.00
1413;DHT22;701;52.526;13.408;2023-07-08T12:40:43;31.40;1.00
1413;DHT22;701;52.526;13.408;2023-07-08T12:43:10;31.30;1.00
1413;DHT22;701;52.526;13.408;2023-07-08T12:45:36;31.30;1.00
1413;DHT22;701;52.526;13.408;2023-07-08T12:48:02;31.40;1.00
1413;DHT22;701;52.526;13.408;2023-07-08T12:50:28;31.40;1.00
1413;DHT22;701;52.526;13.408;2023-07-08T12:52:56;31.30;1.00
1413;DHT22;701;52.526;13.408;2023-07-08T12:55:22;31.30;1.00
1413;DHT22;701;52.526;13.408;2023-07-08T12:57:50;31.30;1.00
1413;DHT22;701;52.526;13.408;2023-07-08T13:00:26;31.30;1.00
1413;DHT22;701;52.526;13.408;2023-07-08T13:03:21;31.30;1.00
1413;DHT22;701;52.526;13.408;2023-07-08T13:05:48;31.40;1.00
1413;DHT22;701;52.526;13.408;2023-07-08T13:08:18;31.40;1.00
1413;DHT22;701;52.526;13.408;2023-07-08T13:10:46;31.40;1.00
1413;DHT22;701;52.526;13.408;2023-07-08T13:13:15;31.40;1.00
1413;DHT22;701;52.526;13.408;2023-07-08T13:15:43;31.40;1.00
1413;DHT22;701;52.526;13.408;2023-07-08T13:20:40;31.40;1.00
1413;DHT22;701;52.526;13.408;2023-07-08T13:23:07;31.40;1.00
1413;DHT22;701;52.526;13.408;2023-07-08T13:25:37;31.40;1.00
1413;DHT22;701;52.526;13.408;2023-07-08T13:28:16;31.40;1.00
1413;DHT22;701;52.526;13.408;2023-07-08T13:33:18;31.60;1.00
1413;DHT22;701;52.526;13.408;2023-07-08T13:35:45;31.70;1.00
1413;DHT22;701;52.526;13.408;2023-07-08T13:38:23;31.80;1.00
1413;DHT22;701;52.526;13.408;2023-07-08T13:40:53;31.90;1.00
1413;DHT22;701;52.526;13.408;2023-07-08T13:43:28;32.00;1.00
1413;DHT22;701;52.526;13.408;2023-07-08T13:45:54;32.10;1.00
1413;DHT22;701;52.526;13.408;2023-07-08T13:50:58;32.30;1.00
1413;DHT22;701;52.526;13.408;2023-07-08T13:56:00;32.50;1.00
1413;DHT22;701;52.526;13.408;2023-07-08T13:58:29;32.60;1.00
1413;DHT22;701;52.526;13.408;2023-07-08T14:00:56;32.60;1.00
1413;DHT22;701;52.526;13.408;2023-07-08T14:03:22;32.60;1.00
1413;DHT22;701;52.526;13.408;2023-07-08T14:05:48;32.70;1.00
1413;DHT22;701;52.526;13.408;2023-07-08T14:08:15;32.60;1.00
1413;DHT22;701;52.526;13.408;2023-07-08T14:10:42;32.70;1.00
1413;DHT22;701;52.526;13.408;2023-07-08T14:13:10;32.70;1.00
1413;DHT22;701;52.526;13.408;2023-07-08T14:15:39;32.80;1.00
1413;DHT22;701;52.526;13.408;2023-07-08T14:18:06;32.80;1.00
1413;DHT22;701;52.526;13.408;2023-07-08T14:20:34;32.80;1.00
1413;DHT22;701;52.526;13.408;2023-07-08T14:22:59;32.80;1.00
1413;DHT22;701;52.526;13.408;2023-07-08T14:25:25;32.80;1.00
1413;DHT22;701;52.526;13.408;2023-07-08T14:27:51;32.80;1.00
1413;DHT22;701;52.526;13.408;2023-07-08T14:30:17;32.80;1.00
1413;DHT22;701;52.526;13.408;2023-07-08T14:32:44;32.90;1.00
1413;DHT22;701;52.526;13.408;2023-07-08T14:35:29;32.90;1.00
1413;DHT22;701;52.526;13.408;2023-07-08T14:37:55;33.00;1.00
1413;DHT22;701;52.526;13.408;2023-07-08T14:43:04;33.10;1.00
1413;DHT22;701;52.526;13.408;2023-07-08T14:45:41;33.10;1.00
1413;DHT22;701;52.526;13.408;2023-07-08T14:48:10;33.10;1.00
1413;DHT22;701;52.526;13.408;2023-07-08T14:50:37;33.20;1.00
1413;DHT22;701;52.526;13.408;2023-07-08T14:53:03;33.20;1.00
1413;DHT22;701;52.526;13.408;2023-07-08T14:55:29;33.30;1.00
1413;DHT22;701;52.526;13.408;2023-07-08T14:57:55;33.30;1.00
1413;DHT22;701;52.526;13.408;2023-07-08T15:00:22;33.30;1.00
1413;DHT22;701;52.526;13.408;2023-07-08T15:02:50;33.30;1.00
1413;DHT22;701;52.526;13.408;2023-07-08T15:05:22;33.30;1.00
1413;DHT22;701;52.526;13.408;2023-07-08T15:07:52;33.30;1.00
1413;DHT22;701;52.526;13.408;2023-07-08T15:10:19;33.30;1.00
1413;DHT22;701;52.526;13.408;2023-07-08T15:12:46;33.30;1.00
1413;DHT22;701;52.526;13.408;2023-07-08T15:15:15;33.30;1.00
1413;DHT22;701;52.526;13.408;2023-07-08T15:17:41;33.30;1.00
1413;DHT22;701;52.526;13.408;2023-07-08T15:20:10;33.30;1.00
1413;DHT22;701;52.526;13.408;2023-07-08T15:22:38;33.30;1.00
1413;DHT22;701;52.526;13.408;2023-07-08T15:25:05;33.20;1.00
1413;DHT22;701;52.526;13.408;2023-07-08T15:27:31;33.20;1.00
1413;DHT22;701;52.526;13.408;2023-07-08T15:29:57;33.20;1.00
1413;DHT22;701;52.526;13.408;2023-07-08T15:32:23;33.20;1.00
1413;DHT22;701;52.526;13.408;2023-07-08T15:34:48;33.20;1.00
1413;DHT22;701;52.526;13.408;2023-07-08T15:37:14;33.30;1.00
1413;DHT22;701;52.526;13.408;2023-07-08T15:39:40;33.30;1.00
1413;DHT22;701;52.526;13.408;2023-07-08T15:42:11;33.30;1.00
1413;DHT22;701;52.526;13.408;2023-07-08T15:44:37;33.50;1.00
1413;DHT22;701;52.526;13.408;2023-07-08T15:47:03;33.50;1.00
1413;DHT22;701;52.526;13.408;2023-07-08T15:49:29;33.60;1.00
1413;DHT22;701;52.526;13.408;2023-07-08T15:51:59;33.70;1.00
1413;DHT22;701;52.526;13.408;2023-07-08T15:54:25;33.60;1.00
1413;DHT22;701;52.526;13.408;2023-07-08T15:56:52;33.60;1.00
1413;DHT22;701;52.526;13.408;2023-07-08T15:59:26;33.50;1.00
1413;DHT22;701;52.526;13.408;2023-07-08T16:01:53;33.40;1.00
1413;DHT22;701;52.526;13.408;2023-07-08T16:04:31;33.40;1.00
1413;DHT22;701;52.526;13.408;2023-07-08T16:06:57;33.30;1.00
1413;DHT22;701;52.526;13.408;2023-07-08T16:09:23;33.20;1.00
1413;DHT22;701;52.526;13.408;2023-07-08T16:11:49;33.10;1.00
1413;DHT22;701;52.526;13.408;2023-07-08T16:14:16;33.00;1.00
1413;DHT22;701;52.526;13.408;2023-07-08T16:16:42;33.00;1.00
1413;DHT22;701;52.526;13.408;2023-07-08T16:19:10;33.00;1.00
1413;DHT22;701;52.526;13.408;2023-07-08T16:21:37;33.10;1.00
1413;DHT22;701;52.526;13.408;2023-07-08T16:24:03;33.30;1.00
1413;DHT22;701;52.526;13.408;2023-07-08T16:26:29;33.40;1.00
1413;DHT22;701;52.526;13.408;2023-07-08T16:28:56;33.40;1.00
1413;DHT22;701;52.526;13.408;2023-07-08T16:31:24;33.40;1.00
1413;DHT22;701;52.526;13.408;2023-07-08T16:33:52;33.30;1.00
1413;DHT22;701;52.526;13.408;2023-07-08T16:36:26;33.20;1.00
1413;DHT22;701;52.526;13.408;2023-07-08T16:38:53;33.00;1.00
1413;DHT22;701;52.526;13.408;2023-07-08T16:41:28;33.00;1.00
1413;DHT22;701;52.526;13.408;2023-07-08T16:43:54;33.10;1.00
1413;DHT22;701;52.526;13.408;2023-07-08T16:46:22;33.40;1.00
1413;DHT22;701;52.526;13.408;2023-07-08T16:48:48;33.50;1.00
1413;DHT22;701;52.526;13.408;2023-07-08T16:51:20;33.50;1.00
1413;DHT22;701;52.526;13.408;2023-07-08T16:53:47;33.30;1.00
1413;DHT22;701;52.526;13.408;2023-07-08T16:56:15;33.10;1.00
1413;DHT22;701;52.526;13.408;2023-07-08T16:58:42;32.90;1.00
1413;DHT22;701;52.526;13.408;2023-07-08T17:01:19;32.60;1.00
1413;DHT22;701;52.526;13.408;2023-07-08T17:03:45;32.40;1.00
1413;DHT22;701;52.526;13.408;2023-07-08T17:06:11;32.20;1.00
1413;DHT22;701;52.526;13.408;2023-07-08T17:08:39;31.90;1.00
1413;DHT22;701;52.526;13.408;2023-07-08T17:11:04;31.70;1.00
1413;DHT22;701;52.526;13.408;2023-07-08T17:13:31;31.60;1.00
1413;DHT22;701;52.526;13.408;2023-07-08T17:15:56;31.40;1.00
1413;DHT22;701;52.526;13.408;2023-07-08T17:18:22;31.30;1.00
1413;DHT22;701;52.526;13.408;2023-07-08T17:20:50;31.10;1.00
1413;DHT22;701;52.526;13.408;2023-07-08T17:23:19;31.00;1.00
1413;DHT22;701;52.526;13.408;2023-07-08T17:25:45;30.90;1.00
1413;DHT22;701;52.526;13.408;2023-07-08T17:28:11;30.80;1.00
1413;DHT22;701;52.526;13.408;2023-07-08T17:30:42;30.60;1.00
1413;DHT22;701;52.526;13.408;2023-07-08T17:33:13;30.50;1.00
1413;DHT22;701;52.526;13.408;2023-07-08T17:35:39;30.40;1.00
1413;DHT22;701;52.526;13.408;2023-07-08T17:38:10;30.30;1.00